createdAt,value
2017-12-11T00:02:00.740Z,9.13
2017-12-11T00:04:28.408Z,6.37
2017-12-11T00:06:56.003Z,7.75
2017-12-11T00:09:23.571Z,5.43
2017-12-11T00:11:51.133Z,9.27
2017-12-11T00:14:18.685Z,5.73
2017-12-11T00:16:46.348Z,3.90
2017-12-11T00:19:13.924Z,6.27
2017-12-11T00:21:41.484Z,11.20
2017-12-11T00:24:09.135Z,12.73
2017-12-11T00:26:36.692Z,9.87
2017-12-11T00:29:04.268Z,7.20
2017-12-11T00:31:31.817Z,6.00
2017-12-11T00:33:59.403Z,17.33
2017-12-11T00:36:26.992Z,5.47
2017-12-11T00:38:54.577Z,4.93
2017-12-11T00:41:22.226Z,6.43
2017-12-11T00:43:49.782Z,6.67
2017-12-11T00:46:17.367Z,6.00
2017-12-11T00:48:44.918Z,10.80
2017-12-11T00:51:12.510Z,7.70
2017-12-11T00:53:40.131Z,5.53
2017-12-11T00:56:07.732Z,7.50
2017-12-11T00:58:35.388Z,11.30
2017-12-11T01:01:02.932Z,7.30
2017-12-11T01:03:30.481Z,11.43
2017-12-11T01:05:58.030Z,8.13
2017-12-11T01:10:59.384Z,11.53
2017-12-11T01:13:26.936Z,7.00
2017-12-11T01:15:54.489Z,8.60
2017-12-11T01:18:22.121Z,9.20
2017-12-11T01:20:49.674Z,6.50
2017-12-11T01:23:17.241Z,6.73
2017-12-11T01:25:44.909Z,8.50
2017-12-11T01:28:12.471Z,10.40
2017-12-11T01:30:40.019Z,4.80
2017-12-11T01:33:07.597Z,5.47
2017-12-11T01:35:35.189Z,5.43
2017-12-11T01:38:02.737Z,5.70
2017-12-11T01:40:30.336Z,6.40
2017-12-11T01:42:57.896Z,13.10
2017-12-11T01:45:25.498Z,9.20
2017-12-11T01:47:53.048Z,4.73
2017-12-11T01:50:20.621Z,7.70
2017-12-11T01:52:48.214Z,9.73
2017-12-11T01:55:15.777Z,8.75
2017-12-11T01:57:43.403Z,10.40
2017-12-11T02:00:10.961Z,7.33
2017-12-11T02:02:38.592Z,11.40
2017-12-11T02:05:06.147Z,5.63
2017-12-11T02:07:34.674Z,11.17
2017-12-11T02:10:02.335Z,6.07
2017-12-11T02:12:29.991Z,6.90
2017-12-11T02:14:57.606Z,11.93
2017-12-11T02:17:25.211Z,4.70
2017-12-11T02:19:52.778Z,5.20
2017-12-11T02:22:20.436Z,5.20
2017-12-11T02:24:47.986Z,4.67
2017-12-11T02:27:15.559Z,4.60
2017-12-11T02:29:43.120Z,6.43
2017-12-11T02:32:10.784Z,3.43
2017-12-11T02:34:38.370Z,2.90
2017-12-11T02:37:05.936Z,5.50
2017-12-11T02:39:33.484Z,2.23
2017-12-11T02:42:01.078Z,3.53
2017-12-11T02:44:28.688Z,3.80
2017-12-11T02:46:56.281Z,9.43
2017-12-11T02:49:23.832Z,6.10
2017-12-11T02:51:51.473Z,4.87
2017-12-11T02:54:19.142Z,7.70
2017-12-11T02:56:46.729Z,2.07
2017-12-11T02:59:14.279Z,4.00
2017-12-11T03:01:41.925Z,4.83
2017-12-11T03:04:09.505Z,7.47
2017-12-11T03:06:37.065Z,2.90
2017-12-11T03:09:04.701Z,12.73
2017-12-11T03:11:32.281Z,2.40
2017-12-11T03:13:59.934Z,4.27
2017-12-11T03:16:27.589Z,3.97
2017-12-11T03:18:55.152Z,3.03
2017-12-11T03:21:22.809Z,2.60
2017-12-11T03:23:50.355Z,4.43
2017-12-11T03:26:17.938Z,4.33
2017-12-11T03:28:45.600Z,3.67
2017-12-11T03:31:13.199Z,3.10
2017-12-11T03:33:40.746Z,1.70
2017-12-11T03:36:08.296Z,3.43
2017-12-11T03:38:35.839Z,9.23
2017-12-11T03:41:03.388Z,3.90
2017-12-11T03:43:30.967Z,3.20
2017-12-11T03:45:58.511Z,3.43
2017-12-11T03:48:26.094Z,3.07
2017-12-11T03:50:53.650Z,1.50
2017-12-11T03:53:21.235Z,5.33
2017-12-11T03:55:48.868Z,7.80
2017-12-11T03:58:16.448Z,2.63
2017-12-11T04:00:44.049Z,2.07
2017-12-11T04:03:11.600Z,4.13
2017-12-11T04:05:39.148Z,3.13
2017-12-11T04:08:06.780Z,5.53
2017-12-11T04:10:34.328Z,2.57
2017-12-11T04:13:01.878Z,5.13
2017-12-11T04:15:29.552Z,1.50
2017-12-11T04:17:57.100Z,3.63
2017-12-11T04:20:24.648Z,1.90
2017-12-11T04:22:52.198Z,2.80
2017-12-11T04:25:19.751Z,8.23
2017-12-11T04:27:47.304Z,3.60
2017-12-11T04:30:15.212Z,2.73
2017-12-11T04:32:42.760Z,9.70
2017-12-11T04:35:10.314Z,4.27
2017-12-11T04:37:37.861Z,3.70
2017-12-11T04:40:07.380Z,4.23
2017-12-11T04:42:35.020Z,2.57
2017-12-11T04:45:02.548Z,8.40
2017-12-11T04:47:30.101Z,2.00
2017-12-11T04:49:57.694Z,2.00
2017-12-11T04:52:25.248Z,6.07
2017-12-11T04:54:52.848Z,3.80
2017-12-11T04:57:20.437Z,4.70
2017-12-11T04:59:47.993Z,2.00
2017-12-11T05:02:15.569Z,3.23
2017-12-11T05:04:43.229Z,5.47
2017-12-11T05:07:10.892Z,6.13
2017-12-11T05:09:38.446Z,3.00
2017-12-11T05:12:05.993Z,1.80
2017-12-11T05:14:33.572Z,2.33
2017-12-11T05:17:01.126Z,2.83
2017-12-11T05:19:28.684Z,1.93
2017-12-11T05:21:56.255Z,2.40
2017-12-11T05:24:23.809Z,3.00
2017-12-11T05:26:51.353Z,3.37
2017-12-11T05:29:18.936Z,6.00
2017-12-11T05:31:46.517Z,5.70
2017-12-11T05:34:20.681Z,3.63
2017-12-11T05:36:48.296Z,3.53
2017-12-11T05:39:16.004Z,2.47
2017-12-11T05:41:43.581Z,2.95
2017-12-11T05:44:11.127Z,4.77
2017-12-11T05:46:38.680Z,2.30
2017-12-11T05:49:06.915Z,2.50
2017-12-11T05:51:35.714Z,4.00
2017-12-11T05:54:03.300Z,6.87
2017-12-11T05:56:30.864Z,6.27
2017-12-11T05:58:58.445Z,3.00
2017-12-11T06:01:26.000Z,4.60
2017-12-11T06:03:53.592Z,20.83
2017-12-11T06:06:21.212Z,4.30
2017-12-11T06:08:48.820Z,4.37
2017-12-11T06:11:16.482Z,3.50
2017-12-11T06:13:44.045Z,5.80
2017-12-11T06:16:11.701Z,6.07
2017-12-11T06:18:39.256Z,4.00
2017-12-11T06:21:07.030Z,4.33
2017-12-11T06:23:34.594Z,3.53
2017-12-11T06:26:02.188Z,4.80
2017-12-11T06:28:29.741Z,4.90
2017-12-11T06:30:57.336Z,4.70
2017-12-11T06:33:24.935Z,4.00
2017-12-11T06:35:52.508Z,5.17
2017-12-11T06:38:20.150Z,4.27
2017-12-11T06:40:47.701Z,4.70
2017-12-11T06:43:15.292Z,6.80
2017-12-11T06:45:42.880Z,3.97
2017-12-11T06:48:10.428Z,5.80
2017-12-11T06:50:38.024Z,4.50
2017-12-11T06:53:05.580Z,5.10
2017-12-11T06:55:33.164Z,5.90
2017-12-11T06:58:00.824Z,4.73
2017-12-11T07:00:28.373Z,4.83
2017-12-11T07:02:55.957Z,5.73
2017-12-11T07:05:23.556Z,5.03
2017-12-11T07:07:51.236Z,7.43
2017-12-11T07:10:18.858Z,5.60
2017-12-11T07:12:46.414Z,5.40
2017-12-11T07:15:13.979Z,6.60
2017-12-11T07:17:41.557Z,7.90
2017-12-11T07:20:09.109Z,8.17
2017-12-11T07:22:36.698Z,4.80
2017-12-11T07:25:04.329Z,5.00
2017-12-11T07:27:31.989Z,6.40
2017-12-11T07:29:59.553Z,6.03
2017-12-11T07:32:27.110Z,8.27
2017-12-11T07:34:54.669Z,6.20
2017-12-11T07:37:22.224Z,6.87
2017-12-11T07:39:49.775Z,6.17
2017-12-11T07:42:17.335Z,7.80
2017-12-11T07:44:44.896Z,6.17
2017-12-11T07:47:12.444Z,6.87
2017-12-11T07:49:40.027Z,4.83
2017-12-11T07:52:07.581Z,8.73
2017-12-11T07:54:35.157Z,7.97
2017-12-11T07:57:02.709Z,6.23
2017-12-11T07:59:30.261Z,7.17
2017-12-11T08:01:57.848Z,8.80
2017-12-11T08:04:25.437Z,11.47
2017-12-11T08:06:54.146Z,6.27
2017-12-11T08:09:21.739Z,9.00
2017-12-11T08:11:49.294Z,7.73
2017-12-11T08:14:16.842Z,7.30
2017-12-11T08:16:44.442Z,7.80
2017-12-11T08:19:12.020Z,9.23
2017-12-11T08:21:39.578Z,17.50
2017-12-11T08:24:07.139Z,8.70
2017-12-11T08:26:34.694Z,10.63
2017-12-11T08:29:02.434Z,9.80
2017-12-11T08:31:30.053Z,7.97
2017-12-11T08:33:57.567Z,9.27
2017-12-11T08:36:25.128Z,10.37
2017-12-11T08:38:52.712Z,8.70
2017-12-11T08:41:20.271Z,10.37
2017-12-11T08:43:50.387Z,9.10
2017-12-11T08:46:17.967Z,7.33
2017-12-11T08:48:45.616Z,9.40
2017-12-11T08:51:13.207Z,12.57
2017-12-11T08:53:40.771Z,11.67
2017-12-11T08:56:08.369Z,11.03
2017-12-11T08:58:35.924Z,19.93
2017-12-11T09:01:03.520Z,13.17
2017-12-11T09:03:31.190Z,8.97
2017-12-11T09:06:02.400Z,10.33
2017-12-11T09:08:29.963Z,11.17
2017-12-11T09:10:57.621Z,12.37
2017-12-11T09:13:25.180Z,9.40
2017-12-11T09:15:52.773Z,11.23
2017-12-11T09:18:20.329Z,13.20
2017-12-11T09:20:47.923Z,13.53
2017-12-11T09:23:15.524Z,13.87
2017-12-11T09:25:43.080Z,12.33
2017-12-11T09:28:10.636Z,13.10
2017-12-11T09:30:38.200Z,14.50
2017-12-11T09:33:05.752Z,18.07
2017-12-11T09:35:33.336Z,12.37
2017-12-11T09:38:00.893Z,12.80
2017-12-11T09:40:28.481Z,9.57
2017-12-11T09:42:56.038Z,13.97
2017-12-11T09:45:24.465Z,13.17
2017-12-11T09:47:52.057Z,14.00
2017-12-11T09:50:19.656Z,10.93
2017-12-11T09:52:47.208Z,11.57
2017-12-11T09:55:14.768Z,11.27
2017-12-11T09:57:42.358Z,10.20
2017-12-11T10:00:12.170Z,12.47
2017-12-11T10:02:39.769Z,10.77
2017-12-11T10:05:07.356Z,12.47
2017-12-11T10:07:34.991Z,11.43
2017-12-11T10:10:02.573Z,9.77
2017-12-11T10:12:30.255Z,20.50
2017-12-11T10:14:57.858Z,9.53
2017-12-11T10:17:25.407Z,9.37
2017-12-11T10:19:53.000Z,8.60
2017-12-11T10:22:21.156Z,9.95
2017-12-11T10:24:49.476Z,10.50
2017-12-11T10:27:17.104Z,6.80
2017-12-11T10:29:44.663Z,12.17
2017-12-11T10:32:12.216Z,9.00
2017-12-11T10:34:39.896Z,7.87
2017-12-11T10:37:07.446Z,8.23
2017-12-11T10:39:35.036Z,7.40
2017-12-11T10:42:02.748Z,9.67
2017-12-11T10:44:30.308Z,10.73
2017-12-11T10:46:57.863Z,12.33
2017-12-11T10:49:25.412Z,9.20
2017-12-11T10:51:52.972Z,11.00
2017-12-11T10:54:20.524Z,8.67
2017-12-11T10:56:48.132Z,10.20
2017-12-11T10:59:15.723Z,8.60
2017-12-11T11:01:43.341Z,9.37
2017-12-11T11:04:11.050Z,12.30
2017-12-11T11:06:38.658Z,12.90
2017-12-11T11:09:06.261Z,11.13
2017-12-11T11:11:33.817Z,12.00
2017-12-11T11:14:01.373Z,11.80
2017-12-11T11:16:29.007Z,20.30
2017-12-11T11:18:56.604Z,11.17
2017-12-11T11:21:24.207Z,11.63
2017-12-11T11:23:51.819Z,12.07
2017-12-11T11:26:19.365Z,12.43
2017-12-11T11:28:47.228Z,11.07
2017-12-11T11:31:18.536Z,13.70
2017-12-11T11:33:47.955Z,10.63
2017-12-11T11:36:19.342Z,11.43
2017-12-11T11:38:58.381Z,12.30
2017-12-11T11:41:36.924Z,10.47
2017-12-11T11:44:07.947Z,7.20
2017-12-11T11:46:44.750Z,9.53
2017-12-11T11:49:15.741Z,8.23
2017-12-11T11:51:46.857Z,9.40
2017-12-11T11:54:19.328Z,10.70
2017-12-11T11:56:51.083Z,8.47
2017-12-11T11:59:18.817Z,10.23
2017-12-11T12:01:46.455Z,11.30
2017-12-11T12:04:14.641Z,10.53
2017-12-11T12:06:42.920Z,11.53
2017-12-11T12:09:10.957Z,9.27
2017-12-11T12:11:38.713Z,11.20
2017-12-11T12:14:06.288Z,10.03
2017-12-11T12:16:33.998Z,9.57
2017-12-11T12:19:01.558Z,13.13
2017-12-11T12:21:29.116Z,16.87
2017-12-11T12:23:56.681Z,13.23
2017-12-11T12:26:24.287Z,14.00
2017-12-11T12:28:51.844Z,13.70
2017-12-11T12:31:19.492Z,17.10
2017-12-11T12:33:47.054Z,13.10
2017-12-11T12:36:14.645Z,14.40
2017-12-11T12:38:42.522Z,11.83
2017-12-11T12:41:10.111Z,14.07
2017-12-11T12:43:37.678Z,12.10
2017-12-11T12:46:08.689Z,15.13
2017-12-11T12:48:36.349Z,10.90
2017-12-11T12:51:03.945Z,15.30
2017-12-11T12:53:32.613Z,13.63
2017-12-11T12:56:00.207Z,12.67
2017-12-11T12:58:27.853Z,12.80
2017-12-11T13:00:55.468Z,12.40
2017-12-11T13:03:23.064Z,13.53
2017-12-11T13:05:50.647Z,13.77
2017-12-11T13:08:18.253Z,12.70
2017-12-11T13:10:45.958Z,13.93
2017-12-11T13:13:14.962Z,14.70
2017-12-11T13:15:44.669Z,14.33
2017-12-11T13:18:12.427Z,16.13
2017-12-11T13:20:39.985Z,12.90
2017-12-11T13:23:08.136Z,19.10
2017-12-11T13:25:38.721Z,13.60
2017-12-11T13:28:07.874Z,15.87
2017-12-11T13:30:37.112Z,15.33
2017-12-11T13:33:06.165Z,13.10
2017-12-11T13:35:38.890Z,14.73
2017-12-11T13:38:07.121Z,13.83
2017-12-11T13:40:34.834Z,17.37
2017-12-11T13:43:02.851Z,16.03
2017-12-11T13:45:30.827Z,16.53
2017-12-11T13:47:59.481Z,15.47
2017-12-11T13:50:28.697Z,19.43
2017-12-11T13:52:58.109Z,17.63
2017-12-11T13:55:26.839Z,23.50
2017-12-11T13:57:54.925Z,18.80
2017-12-11T14:00:23.034Z,16.70
2017-12-11T14:02:51.195Z,17.30
2017-12-11T14:05:25.623Z,19.17
2017-12-11T14:07:57.154Z,18.90
2017-12-11T14:10:26.909Z,23.97
2017-12-11T14:18:19.048Z,29.73
2017-12-11T14:20:46.638Z,18.80
2017-12-11T14:23:14.348Z,18.97
2017-12-11T14:25:42.104Z,22.67
2017-12-11T14:28:09.669Z,20.77
2017-12-11T14:30:37.421Z,17.80
2017-12-11T14:33:05.208Z,15.63
2017-12-11T14:35:32.910Z,16.63
2017-12-11T14:38:00.681Z,18.20
2017-12-11T14:40:28.381Z,17.63
2017-12-11T14:42:56.001Z,17.63
2017-12-11T14:45:23.567Z,17.50
2017-12-11T14:47:51.134Z,19.40
2017-12-11T14:50:20.656Z,17.80
2017-12-11T14:52:48.222Z,20.07
2017-12-11T14:55:15.856Z,19.10
2017-12-11T14:57:43.428Z,15.63
2017-12-11T15:00:10.985Z,19.40
2017-12-11T15:02:38.540Z,13.27
2017-12-11T15:05:06.139Z,21.47
2017-12-11T15:07:33.732Z,14.50
2017-12-11T15:10:01.300Z,17.60
2017-12-11T15:12:28.896Z,23.60
2017-12-11T15:14:56.453Z,15.20
2017-12-11T15:17:24.044Z,14.70
2017-12-11T15:19:51.708Z,17.53
2017-12-11T15:22:19.305Z,17.43
2017-12-11T15:24:47.709Z,15.57
2017-12-11T15:27:15.270Z,18.00
2017-12-11T15:29:42.838Z,16.20
2017-12-11T15:32:10.398Z,18.67
2017-12-11T15:34:37.956Z,18.40
2017-12-11T15:37:05.552Z,17.20
2017-12-11T15:39:33.213Z,13.40
2017-12-11T15:42:00.873Z,15.80
2017-12-11T15:44:28.429Z,16.23
2017-12-11T15:46:56.189Z,20.37
2017-12-11T15:49:24.087Z,16.60
2017-12-11T15:51:51.838Z,16.50
2017-12-11T15:54:19.442Z,16.23
2017-12-11T15:56:47.002Z,15.03
2017-12-11T15:59:14.686Z,16.57
2017-12-11T16:01:42.280Z,15.73
2017-12-11T16:04:09.842Z,18.13
2017-12-11T16:06:37.514Z,15.70
2017-12-11T16:09:05.104Z,15.37
2017-12-11T16:11:32.730Z,13.80
2017-12-11T16:14:00.500Z,15.60
2017-12-11T16:16:28.056Z,16.43
2017-12-11T16:18:55.722Z,17.53
2017-12-11T16:21:23.278Z,16.90
2017-12-11T16:23:50.842Z,15.93
2017-12-11T16:26:18.396Z,18.33
2017-12-11T16:28:46.065Z,21.67
2017-12-11T16:31:13.619Z,22.63
2017-12-11T16:33:41.176Z,24.67
2017-12-11T16:36:08.912Z,29.27
2017-12-11T16:38:36.615Z,24.53
2017-12-11T16:41:04.282Z,20.73
2017-12-11T16:43:31.939Z,23.37
2017-12-11T16:45:59.613Z,22.60
2017-12-11T16:48:27.234Z,22.47
2017-12-11T16:50:54.836Z,24.67
2017-12-11T16:53:22.404Z,21.13
2017-12-11T16:55:49.970Z,21.50
2017-12-11T16:58:17.533Z,20.10
2017-12-11T17:00:45.104Z,19.30
2017-12-11T17:03:12.668Z,29.00
2017-12-11T17:05:40.234Z,35.87
2017-12-11T17:08:08.632Z,21.00
2017-12-11T17:10:44.548Z,19.67
2017-12-11T17:13:12.177Z,21.23
2017-12-11T17:15:39.847Z,24.70
2017-12-11T17:18:07.414Z,17.63
2017-12-11T17:20:36.000Z,19.53
2017-12-11T17:23:03.658Z,20.60
2017-12-11T17:25:31.324Z,21.23
2017-12-11T17:27:58.885Z,18.90
2017-12-11T17:30:26.557Z,19.60
2017-12-11T17:32:54.157Z,19.03
2017-12-11T17:35:21.714Z,19.43
2017-12-11T17:37:49.273Z,20.40
2017-12-11T17:40:17.825Z,23.13
2017-12-11T17:42:45.418Z,21.50
2017-12-11T17:45:13.036Z,22.23
2017-12-11T17:47:40.660Z,19.67
2017-12-11T17:50:08.260Z,19.00
2017-12-11T17:52:35.936Z,15.83
2017-12-11T17:55:03.605Z,13.90
2017-12-11T17:57:31.160Z,15.97
2017-12-11T17:59:58.758Z,18.63
2017-12-11T18:02:26.320Z,18.47
2017-12-11T18:04:53.915Z,18.30
2017-12-11T18:07:21.533Z,17.93
2017-12-11T18:09:49.143Z,19.73
2017-12-11T18:12:16.701Z,18.37
2017-12-11T18:14:44.308Z,23.70
2017-12-11T18:17:11.870Z,16.80
2017-12-11T18:19:39.507Z,18.80
2017-12-11T18:22:07.172Z,16.57
2017-12-11T18:24:34.733Z,17.50
2017-12-11T18:27:02.398Z,12.93
2017-12-11T18:29:29.964Z,16.63
2017-12-11T18:31:57.564Z,14.20
2017-12-11T18:34:25.184Z,15.60
2017-12-11T18:36:52.851Z,13.80
2017-12-11T18:39:20.446Z,14.27
2017-12-11T18:41:47.997Z,19.90
2017-12-11T18:44:15.593Z,15.30
2017-12-11T18:46:43.498Z,12.70
2017-12-11T18:49:11.060Z,14.03
2017-12-11T18:51:44.048Z,14.03
2017-12-11T18:54:12.925Z,12.57
2017-12-11T18:56:40.620Z,14.10
2017-12-11T18:59:08.229Z,12.57
2017-12-11T19:01:35.792Z,13.47
2017-12-11T19:04:03.656Z,13.10
2017-12-11T19:06:31.224Z,18.43
2017-12-11T19:08:58.818Z,13.30
2017-12-11T19:11:26.373Z,14.53
2017-12-11T19:13:54.014Z,16.20
2017-12-11T19:16:21.606Z,13.27
2017-12-11T19:18:49.226Z,17.33
2017-12-11T19:21:16.835Z,16.63
2017-12-11T19:23:44.436Z,21.67
2017-12-11T19:26:14.790Z,15.10
2017-12-11T19:28:42.421Z,19.20
2017-12-11T19:31:10.045Z,13.37
2017-12-11T19:33:37.872Z,13.53
2017-12-11T19:36:05.545Z,15.43
2017-12-11T19:38:33.152Z,14.87
2017-12-11T19:41:00.780Z,13.50
2017-12-11T19:43:28.524Z,12.80
2017-12-11T19:45:56.106Z,14.17
2017-12-11T19:48:23.670Z,13.23
2017-12-11T19:50:51.259Z,14.73
2017-12-11T19:53:18.812Z,17.83
2017-12-11T19:55:46.469Z,16.20
2017-12-11T19:58:14.078Z,15.03
2017-12-11T20:00:42.230Z,14.13
2017-12-11T20:03:09.869Z,11.97
2017-12-11T20:05:37.575Z,15.30
2017-12-11T20:08:05.215Z,20.03
2017-12-11T20:10:32.964Z,19.90
2017-12-11T20:13:00.582Z,15.43
2017-12-11T20:15:28.190Z,16.23
2017-12-11T20:17:55.766Z,21.87
2017-12-11T20:20:23.377Z,15.83
2017-12-11T20:22:50.942Z,16.63
2017-12-11T20:25:18.500Z,19.27
2017-12-11T20:27:46.276Z,15.70
2017-12-11T20:30:13.970Z,19.20
2017-12-11T20:32:41.570Z,16.37
2017-12-11T20:35:09.134Z,13.80
2017-12-11T20:37:36.697Z,17.33
2017-12-11T20:40:15.018Z,16.10
2017-12-11T20:42:43.669Z,17.07
2017-12-11T20:45:11.332Z,16.50
2017-12-11T20:47:38.938Z,20.77
2017-12-11T20:50:07.642Z,15.33
2017-12-11T20:52:35.380Z,17.90
2017-12-11T20:55:03.020Z,16.63
2017-12-11T20:57:36.651Z,15.57
2017-12-11T21:00:04.609Z,14.83
2017-12-11T21:02:32.361Z,15.53
2017-12-11T21:05:00.700Z,17.80
2017-12-11T21:07:28.293Z,16.27
2017-12-11T21:09:56.702Z,18.07
2017-12-11T21:12:24.900Z,16.40
2017-12-11T21:14:52.888Z,14.23
2017-12-11T21:17:20.901Z,16.10
2017-12-11T21:19:49.737Z,16.20
2017-12-11T21:22:18.550Z,13.93
2017-12-11T21:24:46.185Z,16.17
2017-12-11T21:27:14.541Z,15.13
2017-12-11T21:29:43.126Z,17.93
2017-12-11T21:32:11.590Z,17.27
2017-12-11T21:34:40.258Z,14.53
2017-12-11T21:37:08.626Z,15.07
2017-12-11T21:39:37.338Z,16.50
2017-12-11T21:42:07.095Z,12.47
2017-12-11T21:44:34.923Z,14.43
2017-12-11T21:47:03.285Z,15.10
2017-12-11T21:49:32.540Z,15.97
2017-12-11T21:52:01.158Z,12.50
2017-12-11T21:54:29.072Z,14.50
2017-12-11T21:56:56.871Z,15.03
2017-12-11T21:59:25.534Z,16.77
2017-12-11T22:01:53.288Z,17.80
2017-12-11T22:04:20.876Z,13.13
2017-12-11T22:06:49.428Z,16.07
2017-12-11T22:09:17.145Z,17.40
2017-12-11T22:11:44.734Z,15.93
2017-12-11T22:14:12.908Z,15.83
2017-12-11T22:16:40.495Z,15.50
2017-12-11T22:19:08.058Z,14.63
2017-12-11T22:21:35.627Z,16.23
2017-12-11T22:24:03.251Z,14.30
2017-12-11T22:26:30.901Z,17.23
2017-12-11T22:28:58.471Z,14.20
2017-12-11T22:31:26.125Z,15.47
2017-12-11T22:33:53.852Z,15.90
2017-12-11T22:36:21.411Z,17.17
2017-12-11T22:38:48.985Z,14.63
2017-12-11T22:41:16.636Z,17.50
2017-12-11T22:43:44.205Z,24.27
2017-12-11T22:46:11.756Z,16.53
2017-12-11T22:48:39.356Z,22.37
2017-12-11T22:51:06.921Z,19.90
2017-12-11T22:53:34.513Z,19.23
2017-12-11T22:56:02.145Z,22.93
2017-12-11T22:58:29.801Z,22.50
2017-12-11T23:00:57.470Z,23.23
2017-12-11T23:03:25.044Z,21.63
2017-12-11T23:05:52.660Z,19.90
2017-12-11T23:08:20.252Z,18.90
2017-12-11T23:10:47.824Z,15.90
2017-12-11T23:13:15.480Z,21.13
2017-12-11T23:15:43.045Z,21.37
2017-12-11T23:18:10.696Z,19.53
2017-12-11T23:20:38.255Z,19.07
2017-12-11T23:23:05.853Z,17.73
2017-12-11T23:25:33.413Z,20.50
2017-12-11T23:28:00.976Z,17.60
2017-12-11T23:30:28.565Z,20.40
2017-12-11T23:32:56.125Z,20.50
2017-12-11T23:35:23.808Z,16.73
2017-12-11T23:37:51.404Z,21.10
2017-12-11T23:40:18.962Z,20.67
2017-12-11T23:42:46.613Z,20.63
2017-12-11T23:45:14.177Z,21.43
2017-12-11T23:47:41.746Z,20.50
2017-12-11T23:50:09.318Z,16.67
2017-12-11T23:52:36.877Z,18.27
2017-12-11T23:55:04.440Z,18.17
2017-12-11T23:57:32.000Z,19.70
2017-12-11T23:59:59.568Z,16.20
